createdAt,value
2019-03-30T00:00:03.164Z,38
2019-03-30T00:00:29.167Z,38
2019-03-30T00:00:55.256Z,38
2019-03-30T00:01:21.181Z,38
2019-03-30T00:01:47.170Z,38
2019-03-30T00:02:13.250Z,38
2019-03-30T00:02:39.169Z,39
2019-03-30T00:03:05.248Z,39
2019-03-30T00:03:31.173Z,38
2019-03-30T00:03:57.171Z,38
2019-03-30T00:04:23.345Z,38
2019-03-30T00:04:49.188Z,38
2019-03-30T00:05:15.266Z,38
2019-03-30T00:05:41.187Z,38
2019-03-30T00:06:07.266Z,38
2019-03-30T00:06:33.178Z,38
2019-03-30T00:06:59.178Z,38
2019-03-30T00:07:25.266Z,38
2019-03-30T00:07:51.184Z,38
2019-03-30T00:08:17.176Z,38
2019-03-30T00:08:43.181Z,38
2019-03-30T00:09:09.190Z,38
2019-03-30T00:09:35.267Z,38
2019-03-30T00:10:01.289Z,38
2019-03-30T00:10:27.745Z,38
2019-03-30T00:10:53.176Z,38
2019-03-30T00:11:19.181Z,38
2019-03-30T00:11:45.272Z,38
2019-03-30T00:12:11.193Z,38
2019-03-30T00:12:37.187Z,38
2019-03-30T00:13:03.193Z,38
2019-03-30T00:13:29.266Z,38
2019-03-30T00:13:55.274Z,38
2019-03-30T00:14:21.186Z,39
2019-03-30T00:14:47.188Z,38
2019-03-30T00:15:13.190Z,38
2019-03-30T00:15:39.191Z,38
2019-03-30T00:16:05.293Z,38
2019-03-30T00:16:31.270Z,38
2019-03-30T00:16:57.188Z,38
2019-03-30T00:17:23.189Z,38
2019-03-30T00:17:49.190Z,39
2019-03-30T00:18:15.843Z,38
2019-03-30T00:18:41.188Z,38
2019-03-30T00:19:07.818Z,38
2019-03-30T00:19:33.265Z,38
2019-03-30T00:19:59.203Z,38
2019-03-30T00:20:26.076Z,38
2019-03-30T00:20:51.230Z,38
2019-03-30T00:21:17.208Z,38
2019-03-30T00:21:43.204Z,38
2019-03-30T00:22:09.203Z,38
2019-03-30T00:22:35.300Z,39
2019-03-30T00:23:01.302Z,38
2019-03-30T00:23:27.198Z,38
2019-03-30T00:23:53.269Z,38
2019-03-30T00:24:19.203Z,38
2019-03-30T00:24:45.306Z,38
2019-03-30T00:25:11.307Z,38
2019-03-30T00:25:37.207Z,38
2019-03-30T00:26:03.223Z,38
2019-03-30T00:26:29.285Z,38
2019-03-30T00:26:55.289Z,38
2019-03-30T00:27:21.311Z,38
2019-03-30T00:27:47.475Z,38
2019-03-30T00:28:13.217Z,38
2019-03-30T00:28:39.214Z,38
2019-03-30T00:29:05.307Z,38
2019-03-30T00:29:31.394Z,38
2019-03-30T00:29:57.213Z,38
2019-03-30T00:30:23.220Z,38
2019-03-30T00:30:49.221Z,38
2019-03-30T00:31:15.315Z,38
2019-03-30T00:31:41.320Z,38
2019-03-30T00:32:07.230Z,38
2019-03-30T00:32:33.308Z,38
2019-03-30T00:32:59.219Z,38
2019-03-30T00:33:25.312Z,38
2019-03-30T00:33:51.320Z,38
2019-03-30T00:34:17.221Z,38
2019-03-30T00:34:43.231Z,38
2019-03-30T00:35:09.238Z,38
2019-03-30T00:35:35.379Z,38
2019-03-30T00:36:01.340Z,38
2019-03-30T00:36:27.219Z,38
2019-03-30T00:36:53.233Z,38
2019-03-30T00:37:19.230Z,38
2019-03-30T00:37:45.313Z,38
2019-03-30T00:38:11.486Z,39
2019-03-30T00:38:37.230Z,38
2019-03-30T00:39:03.219Z,38
2019-03-30T00:39:29.219Z,38
2019-03-30T00:39:55.319Z,38
2019-03-30T00:40:21.330Z,38
2019-03-30T00:40:47.235Z,38
2019-03-30T00:41:13.238Z,38
2019-03-30T00:41:39.226Z,38
2019-03-30T00:42:05.335Z,38
2019-03-30T00:42:31.415Z,39
2019-03-30T00:42:57.229Z,39
2019-03-30T00:43:23.231Z,39
2019-03-30T00:43:49.235Z,39
2019-03-30T00:44:15.321Z,39
2019-03-30T00:44:41.330Z,39
2019-03-30T00:45:07.245Z,39
2019-03-30T00:45:33.327Z,39
2019-03-30T00:45:59.227Z,39
2019-03-30T00:46:25.326Z,39
2019-03-30T00:46:51.335Z,39
2019-03-30T00:47:17.233Z,39
2019-03-30T00:47:43.241Z,39
2019-03-30T00:48:09.248Z,39
2019-03-30T00:48:35.321Z,39
2019-03-30T00:49:01.442Z,39
2019-03-30T00:49:27.235Z,39
2019-03-30T00:49:53.248Z,39
2019-03-30T00:50:19.236Z,39
2019-03-30T00:50:45.336Z,39
2019-03-30T00:51:11.340Z,39
2019-03-30T00:51:37.243Z,39
2019-03-30T00:52:03.989Z,39
2019-03-30T00:52:29.257Z,39
2019-03-30T00:52:55.404Z,39
2019-03-30T00:53:21.341Z,39
2019-03-30T00:53:47.245Z,39
2019-03-30T00:54:13.253Z,39
2019-03-30T00:54:39.251Z,39
2019-03-30T00:55:05.347Z,39
2019-03-30T00:55:31.934Z,39
2019-03-30T00:55:57.324Z,39
2019-03-30T00:56:23.248Z,39
2019-03-30T00:56:49.247Z,39
2019-03-30T00:57:15.344Z,39
2019-03-30T00:57:41.351Z,39
2019-03-30T00:58:07.255Z,39
2019-03-30T00:58:33.402Z,39
2019-03-30T00:58:59.254Z,39
2019-03-30T00:59:25.343Z,39
2019-03-30T00:59:51.355Z,39
2019-03-30T01:00:17.247Z,39
2019-03-30T01:00:43.259Z,39
2019-03-30T01:01:09.258Z,39
2019-03-30T01:01:35.345Z,39
2019-03-30T01:02:01.924Z,39
2019-03-30T01:02:27.549Z,39
2019-03-30T01:02:53.264Z,39
2019-03-30T01:03:19.329Z,39
2019-03-30T01:03:45.346Z,39
2019-03-30T01:04:11.366Z,39
2019-03-30T01:04:37.263Z,39
2019-03-30T01:05:03.266Z,39
2019-03-30T01:05:29.266Z,39
2019-03-30T01:05:55.424Z,39
2019-03-30T01:06:21.356Z,39
2019-03-30T01:06:47.261Z,39
2019-03-30T01:07:13.277Z,39
2019-03-30T01:07:39.271Z,39
2019-03-30T01:08:05.362Z,39
2019-03-30T01:08:31.376Z,39
2019-03-30T01:08:57.264Z,39
2019-03-30T01:09:23.275Z,39
2019-03-30T01:09:49.270Z,39
2019-03-30T01:10:15.370Z,39
2019-03-30T01:10:41.380Z,39
2019-03-30T01:11:07.273Z,39
2019-03-30T01:11:33.287Z,38
2019-03-30T01:11:59.351Z,38
2019-03-30T01:12:25.445Z,38
2019-03-30T01:12:51.376Z,38
2019-03-30T01:13:17.278Z,38
2019-03-30T01:13:43.287Z,39
2019-03-30T01:14:09.284Z,38
2019-03-30T01:14:35.371Z,38
2019-03-30T01:15:01.405Z,38
2019-03-30T01:15:27.289Z,38
2019-03-30T01:15:53.368Z,38
2019-03-30T01:16:19.274Z,38
2019-03-30T01:16:45.365Z,38
2019-03-30T01:17:11.387Z,38
2019-03-30T01:17:37.293Z,38
2019-03-30T01:18:03.791Z,38
2019-03-30T01:18:29.270Z,38
2019-03-30T01:18:55.422Z,38
2019-03-30T01:19:21.269Z,38
2019-03-30T01:19:47.271Z,38
2019-03-30T01:20:13.279Z,38
2019-03-30T01:20:39.274Z,38
2019-03-30T01:21:05.363Z,38
2019-03-30T01:21:31.276Z,38
2019-03-30T01:21:57.285Z,38
2019-03-30T01:22:23.276Z,38
2019-03-30T01:22:49.284Z,38
2019-03-30T01:23:15.361Z,38
2019-03-30T01:23:41.278Z,38
2019-03-30T01:24:07.279Z,38
2019-03-30T01:24:33.567Z,38
2019-03-30T01:24:59.281Z,39
2019-03-30T01:25:25.394Z,38
2019-03-30T01:25:51.279Z,38
2019-03-30T01:26:17.284Z,38
2019-03-30T01:26:43.286Z,38
2019-03-30T01:27:09.281Z,38
2019-03-30T01:27:35.672Z,38
2019-03-30T01:28:01.303Z,38
2019-03-30T01:28:27.281Z,38
2019-03-30T01:28:53.283Z,38
2019-03-30T01:29:19.285Z,38
2019-03-30T01:29:45.374Z,38
2019-03-30T01:30:11.287Z,38
2019-03-30T01:30:37.288Z,38
2019-03-30T01:31:03.297Z,38
2019-03-30T01:31:29.361Z,38
2019-03-30T01:31:55.372Z,38
2019-03-30T01:32:21.289Z,39
2019-03-30T01:32:47.291Z,39
2019-03-30T01:33:13.292Z,39
2019-03-30T01:33:39.291Z,39
2019-03-30T01:34:05.472Z,39
2019-03-30T01:34:31.297Z,39
2019-03-30T01:34:57.291Z,39
2019-03-30T01:35:23.292Z,39
2019-03-30T01:35:49.294Z,39
2019-03-30T01:36:15.384Z,39
2019-03-30T01:36:41.300Z,39
2019-03-30T01:37:07.296Z,39
2019-03-30T01:37:33.308Z,39
2019-03-30T01:37:59.292Z,39
2019-03-30T01:38:25.378Z,39
2019-03-30T01:38:51.301Z,39
2019-03-30T01:39:17.301Z,39
2019-03-30T01:39:43.300Z,39
2019-03-30T01:40:09.303Z,39
2019-03-30T01:40:35.389Z,40
2019-03-30T01:41:01.324Z,39
2019-03-30T01:41:27.306Z,39
2019-03-30T01:41:53.322Z,39
2019-03-30T01:42:19.314Z,39
2019-03-30T01:42:45.468Z,39
2019-03-30T01:43:11.312Z,39
2019-03-30T01:43:37.312Z,39
2019-03-30T01:44:03.311Z,39
2019-03-30T01:44:29.312Z,39
2019-03-30T01:44:55.399Z,39
2019-03-30T01:45:21.317Z,39
2019-03-30T01:45:47.311Z,39
2019-03-30T01:46:13.397Z,39
2019-03-30T01:46:39.317Z,39
2019-03-30T01:47:05.400Z,39
2019-03-30T01:47:31.318Z,40
2019-03-30T01:47:57.319Z,40
2019-03-30T01:48:23.317Z,40
2019-03-30T01:48:49.322Z,40
2019-03-30T01:49:15.417Z,40
2019-03-30T01:49:41.320Z,39
2019-03-30T01:50:07.325Z,39
2019-03-30T01:50:33.317Z,39
2019-03-30T01:50:59.322Z,39
2019-03-30T01:51:25.414Z,39
2019-03-30T01:51:51.327Z,39
2019-03-30T01:52:17.327Z,39
2019-03-30T01:52:43.322Z,39
2019-03-30T01:53:09.334Z,39
2019-03-30T01:53:35.411Z,39
2019-03-30T01:54:01.899Z,39
2019-03-30T01:54:27.325Z,39
2019-03-30T01:54:53.329Z,39
2019-03-30T01:55:19.324Z,39
2019-03-30T01:55:45.415Z,39
2019-03-30T01:56:11.352Z,39
2019-03-30T01:56:37.335Z,39
2019-03-30T01:57:03.331Z,39
2019-03-30T01:57:29.345Z,39
2019-03-30T01:57:55.413Z,39
2019-03-30T01:58:21.416Z,39
2019-03-30T01:58:47.326Z,39
2019-03-30T01:59:13.332Z,39
2019-03-30T01:59:39.339Z,39
2019-03-30T02:00:05.433Z,39
2019-03-30T02:00:31.333Z,39
2019-03-30T02:00:57.347Z,39
2019-03-30T02:01:23.455Z,39
2019-03-30T02:01:49.326Z,40
2019-03-30T02:02:15.412Z,39
2019-03-30T02:02:41.336Z,39
2019-03-30T02:03:07.343Z,39
2019-03-30T02:03:33.728Z,39
2019-03-30T02:03:59.350Z,39
2019-03-30T02:04:25.427Z,39
2019-03-30T02:04:51.345Z,39
2019-03-30T02:05:17.341Z,39
2019-03-30T02:05:43.348Z,39
2019-03-30T02:06:09.346Z,40
2019-03-30T02:06:35.427Z,39
2019-03-30T02:07:01.366Z,39
2019-03-30T02:07:27.346Z,39
2019-03-30T02:07:53.431Z,39
2019-03-30T02:08:19.344Z,39
2019-03-30T02:08:45.434Z,39
2019-03-30T02:09:11.351Z,39
2019-03-30T02:09:37.355Z,39
2019-03-30T02:10:03.349Z,39
2019-03-30T02:10:29.359Z,39
2019-03-30T02:10:55.431Z,39
2019-03-30T02:11:21.350Z,39
2019-03-30T02:11:47.347Z,39
2019-03-30T02:12:13.349Z,39
2019-03-30T02:12:39.358Z,39
2019-03-30T02:13:05.459Z,39
2019-03-30T02:13:31.361Z,40
2019-03-30T02:13:57.355Z,39
2019-03-30T02:14:23.436Z,39
2019-03-30T02:14:49.350Z,39
2019-03-30T02:15:15.432Z,39
2019-03-30T02:15:41.358Z,39
2019-03-30T02:16:06.904Z,39
2019-03-30T02:16:32.791Z,39
2019-03-30T02:16:58.367Z,39
2019-03-30T02:17:24.378Z,39
2019-03-30T02:17:50.365Z,39
2019-03-30T02:18:16.446Z,39
2019-03-30T02:18:42.361Z,39
2019-03-30T02:19:08.361Z,39
2019-03-30T02:19:34.467Z,39
2019-03-30T02:20:00.390Z,39
2019-03-30T02:20:26.368Z,39
2019-03-30T02:20:52.377Z,39
2019-03-30T02:21:18.443Z,39
2019-03-30T02:21:44.366Z,39
2019-03-30T02:22:10.368Z,39
2019-03-30T02:22:36.365Z,39
2019-03-30T02:23:02.370Z,39
2019-03-30T02:23:28.371Z,39
2019-03-30T02:23:54.368Z,39
2019-03-30T02:24:20.377Z,39
2019-03-30T02:24:46.385Z,39
2019-03-30T02:25:12.371Z,39
2019-03-30T02:25:38.459Z,39
2019-03-30T02:26:04.370Z,39
2019-03-30T02:26:30.691Z,39
2019-03-30T02:26:56.501Z,39
2019-03-30T02:27:22.371Z,39
2019-03-30T02:27:48.378Z,39
2019-03-30T02:28:14.387Z,39
2019-03-30T02:28:40.383Z,39
2019-03-30T02:29:06.462Z,39
2019-03-30T02:29:32.374Z,39
2019-03-30T02:29:58.377Z,39
2019-03-30T02:30:30.421Z,39
2019-03-30T02:30:56.349Z,39
2019-03-30T02:31:22.422Z,39
2019-03-30T02:31:48.546Z,39
2019-03-30T02:32:25.144Z,39
2019-03-30T02:33:18.339Z,39
2019-03-30T02:33:43.737Z,39
2019-03-30T02:34:25.375Z,39
2019-03-30T02:34:51.296Z,39
2019-03-30T02:35:17.382Z,39
2019-03-30T02:37:22.384Z,39
2019-03-30T02:37:48.307Z,39
2019-03-30T02:38:14.396Z,39
2019-03-30T02:38:40.307Z,39
2019-03-30T02:39:06.335Z,39
2019-03-30T02:39:32.348Z,39
2019-03-30T02:39:58.432Z,39
2019-03-30T02:40:24.385Z,39
2019-03-30T02:40:50.312Z,39
2019-03-30T02:41:16.312Z,39
2019-03-30T02:41:42.319Z,39
2019-03-30T02:42:37.352Z,39
2019-03-30T02:43:03.506Z,39
2019-03-30T02:43:29.360Z,39
2019-03-30T02:43:55.279Z,39
2019-03-30T02:44:21.281Z,39
2019-03-30T02:44:47.280Z,39
2019-03-30T02:45:56.250Z,39
2019-03-30T02:46:48.311Z,39
2019-03-30T02:47:40.640Z,39
2019-03-30T02:48:44.555Z,39
2019-03-30T02:49:10.484Z,39
2019-03-30T02:49:36.558Z,39
2019-03-30T02:50:26.603Z,39
2019-03-30T02:51:23.011Z,39
2019-03-30T02:51:58.248Z,39
2019-03-30T02:53:53.731Z,39
2019-03-30T02:54:19.814Z,39
2019-03-30T02:56:48.443Z,40
2019-03-30T02:57:14.365Z,40
2019-03-30T02:57:40.458Z,40
2019-03-30T02:58:06.370Z,40
2019-03-30T02:58:32.369Z,40
2019-03-30T02:58:58.377Z,40
2019-03-30T02:59:24.438Z,40
2019-03-30T02:59:50.452Z,40
2019-03-30T03:00:16.371Z,40
2019-03-30T03:00:42.371Z,40
2019-03-30T03:01:08.372Z,40
2019-03-30T03:01:34.446Z,40
2019-03-30T03:02:00.531Z,40
2019-03-30T03:02:26.441Z,40
2019-03-30T03:02:52.381Z,40
2019-03-30T03:03:18.377Z,40
2019-03-30T03:03:44.384Z,40
2019-03-30T03:04:10.487Z,40
2019-03-30T03:04:36.455Z,40
2019-03-30T03:05:02.375Z,40
2019-03-30T03:05:28.377Z,40
2019-03-30T03:05:54.383Z,40
2019-03-30T03:06:20.469Z,40
2019-03-30T03:06:46.388Z,40
2019-03-30T03:07:12.465Z,40
2019-03-30T03:07:38.378Z,40
2019-03-30T03:08:04.383Z,40
2019-03-30T03:08:30.651Z,40
2019-03-30T03:08:56.385Z,40
2019-03-30T03:09:22.395Z,40
2019-03-30T03:09:48.452Z,40
2019-03-30T03:10:14.384Z,40
2019-03-30T03:10:40.475Z,40
2019-03-30T03:11:06.402Z,40
2019-03-30T03:11:32.386Z,40
2019-03-30T03:11:58.399Z,40
2019-03-30T03:12:24.457Z,40
2019-03-30T03:12:50.473Z,40
2019-03-30T03:13:16.392Z,40
2019-03-30T03:13:42.395Z,40
2019-03-30T03:14:08.401Z,40
2019-03-30T03:14:34.395Z,40
2019-03-30T03:15:00.550Z,40
2019-03-30T03:15:26.393Z,40
2019-03-30T03:15:52.396Z,40
2019-03-30T03:16:18.395Z,40
2019-03-30T03:16:44.395Z,40
2019-03-30T03:17:10.495Z,40
2019-03-30T03:17:36.399Z,40
2019-03-30T03:18:02.396Z,40
2019-03-30T03:18:28.397Z,40
2019-03-30T03:18:54.408Z,40
2019-03-30T03:19:20.478Z,40
2019-03-30T03:19:46.400Z,40
2019-03-30T03:20:12.408Z,40
2019-03-30T03:20:38.473Z,40
2019-03-30T03:21:04.398Z,40
2019-03-30T03:21:30.488Z,40
2019-03-30T03:21:56.406Z,40
2019-03-30T03:22:22.407Z,40
2019-03-30T03:22:48.404Z,40
2019-03-30T03:23:14.416Z,40
2019-03-30T03:23:40.557Z,40
2019-03-30T03:24:06.404Z,40
2019-03-30T03:24:32.575Z,40
2019-03-30T03:24:58.409Z,40
2019-03-30T03:25:24.408Z,38
2019-03-30T03:25:50.503Z,37
2019-03-30T03:26:16.484Z,36
2019-03-30T03:26:42.409Z,35
2019-03-30T03:27:08.412Z,35
2019-03-30T03:27:34.414Z,34
2019-03-30T03:28:00.495Z,34
2019-03-30T03:28:26.421Z,35
2019-03-30T03:28:52.485Z,36
2019-03-30T03:29:18.411Z,36
2019-03-30T03:29:44.516Z,37
2019-03-30T03:30:10.502Z,37
2019-03-30T03:30:36.414Z,37
2019-03-30T03:31:02.425Z,39
2019-03-30T03:31:28.487Z,38
2019-03-30T03:31:54.413Z,38
2019-03-30T03:32:20.496Z,38
2019-03-30T03:32:46.423Z,38
2019-03-30T03:33:12.417Z,38
2019-03-30T03:33:38.425Z,38
2019-03-30T03:34:04.494Z,38
2019-03-30T03:34:30.505Z,38
2019-03-30T03:34:56.423Z,38
2019-03-30T03:35:22.479Z,38
2019-03-30T03:35:48.423Z,38
2019-03-30T03:36:14.457Z,38
2019-03-30T03:36:40.569Z,38
2019-03-30T03:37:06.431Z,38
2019-03-30T03:37:32.427Z,38
2019-03-30T03:37:58.438Z,38
2019-03-30T03:38:24.423Z,38
2019-03-30T03:38:50.513Z,38
2019-03-30T03:39:16.507Z,38
2019-03-30T03:39:42.427Z,38
2019-03-30T03:40:08.429Z,38
2019-03-30T03:40:34.430Z,38
2019-03-30T03:41:00.516Z,38
2019-03-30T03:41:26.437Z,38
2019-03-30T03:41:52.506Z,38
2019-03-30T03:42:18.430Z,38
2019-03-30T03:42:44.441Z,38
2019-03-30T03:43:10.529Z,38
2019-03-30T03:43:36.436Z,39
2019-03-30T03:44:02.450Z,38
2019-03-30T03:44:28.504Z,38
2019-03-30T03:44:54.434Z,38
2019-03-30T03:45:20.518Z,38
2019-03-30T03:45:46.436Z,38
2019-03-30T03:46:12.444Z,38
2019-03-30T03:46:38.449Z,38
2019-03-30T03:47:04.510Z,38
2019-03-30T03:47:30.518Z,38
2019-03-30T03:47:56.436Z,38
2019-03-30T03:48:22.440Z,38
2019-03-30T03:48:48.444Z,39
2019-03-30T03:49:14.451Z,39
2019-03-30T03:49:40.589Z,39
2019-03-30T03:50:06.455Z,38
2019-03-30T03:50:32.443Z,39
2019-03-30T03:50:58.444Z,39
2019-03-30T03:51:24.444Z,39
2019-03-30T03:51:50.544Z,39
2019-03-30T03:52:16.523Z,39
2019-03-30T03:52:42.442Z,39
2019-03-30T03:53:08.447Z,39
2019-03-30T03:53:34.450Z,39
2019-03-30T03:54:01.021Z,39
2019-03-30T03:54:26.455Z,39
2019-03-30T03:54:52.529Z,39
2019-03-30T03:55:18.446Z,39
2019-03-30T03:55:44.458Z,39
2019-03-30T03:56:10.543Z,39
2019-03-30T03:56:36.458Z,40
2019-03-30T03:57:02.480Z,39
2019-03-30T03:57:28.525Z,39
2019-03-30T03:57:54.453Z,39
2019-03-30T03:58:20.539Z,39
2019-03-30T03:58:46.458Z,39
2019-03-30T03:59:12.456Z,39
2019-03-30T03:59:38.462Z,39
2019-03-30T04:00:04.546Z,39
2019-03-30T04:00:30.548Z,39
2019-03-30T04:00:56.455Z,39
2019-03-30T04:01:22.454Z,39
2019-03-30T04:01:48.465Z,39
2019-03-30T04:02:14.468Z,39
2019-03-30T04:02:40.633Z,39
2019-03-30T04:03:06.469Z,40
2019-03-30T04:03:32.461Z,39
2019-03-30T04:03:58.460Z,39
2019-03-30T04:04:24.463Z,39
2019-03-30T04:04:50.560Z,39
2019-03-30T04:05:16.541Z,39
2019-03-30T04:05:42.464Z,39
2019-03-30T04:06:08.469Z,39
2019-03-30T04:06:34.894Z,39
2019-03-30T04:07:00.544Z,39
2019-03-30T04:07:26.479Z,39
2019-03-30T04:07:52.549Z,40
2019-03-30T04:08:18.466Z,40
2019-03-30T04:08:44.470Z,40
2019-03-30T04:09:10.556Z,40
2019-03-30T04:09:36.478Z,40
2019-03-30T04:10:02.483Z,40
2019-03-30T04:10:28.546Z,40
2019-03-30T04:10:54.466Z,40
2019-03-30T04:11:20.549Z,40
2019-03-30T04:11:46.469Z,40
2019-03-30T04:12:12.478Z,40
2019-03-30T04:12:38.484Z,40
2019-03-30T04:13:04.543Z,40
2019-03-30T04:13:30.557Z,40
2019-03-30T04:13:56.477Z,40
2019-03-30T04:14:22.501Z,40
2019-03-30T04:14:48.477Z,40
2019-03-30T04:15:14.492Z,40
2019-03-30T04:15:40.633Z,40
2019-03-30T04:16:06.476Z,40
2019-03-30T04:16:32.476Z,40
2019-03-30T04:16:58.480Z,40
2019-03-30T04:17:24.482Z,40
2019-03-30T04:17:50.579Z,40
2019-03-30T04:18:16.560Z,40
2019-03-30T04:18:42.484Z,40
2019-03-30T04:19:08.487Z,40
2019-03-30T04:19:34.485Z,40
2019-03-30T04:20:00.607Z,40
2019-03-30T04:20:26.490Z,40
2019-03-30T04:20:52.562Z,40
2019-03-30T04:21:18.482Z,40
2019-03-30T04:21:44.493Z,40
2019-03-30T04:22:10.580Z,40
2019-03-30T04:22:36.492Z,40
2019-03-30T04:23:02.497Z,40
2019-03-30T04:23:28.561Z,40
2019-03-30T04:23:54.488Z,40
2019-03-30T04:24:20.572Z,40
2019-03-30T04:24:46.495Z,40
2019-03-30T04:25:12.497Z,41
2019-03-30T04:25:38.511Z,40
2019-03-30T04:26:04.613Z,41
2019-03-30T04:26:30.575Z,41
2019-03-30T04:26:56.496Z,41
2019-03-30T04:27:22.494Z,41
2019-03-30T04:27:48.496Z,41
2019-03-30T04:28:14.508Z,41
2019-03-30T04:28:40.645Z,41
2019-03-30T04:29:06.501Z,41
2019-03-30T04:29:32.569Z,41
2019-03-30T04:29:58.502Z,41
2019-03-30T04:30:24.498Z,41
2019-03-30T04:30:50.584Z,41
2019-03-30T04:31:16.583Z,41
2019-03-30T04:31:42.501Z,41
2019-03-30T04:32:08.505Z,41
2019-03-30T04:32:34.503Z,41
2019-03-30T04:33:00.591Z,41
2019-03-30T04:33:26.518Z,41
2019-03-30T04:33:52.578Z,41
2019-03-30T04:34:18.501Z,41
2019-03-30T04:34:44.512Z,41
2019-03-30T04:35:10.588Z,41
2019-03-30T04:35:36.503Z,41
2019-03-30T04:36:02.536Z,41
2019-03-30T04:36:28.584Z,41
2019-03-30T04:36:54.504Z,41
2019-03-30T04:37:20.594Z,41
2019-03-30T04:37:46.506Z,41
2019-03-30T04:38:12.517Z,41
2019-03-30T04:38:38.521Z,41
2019-03-30T04:39:04.581Z,41
2019-03-30T04:39:30.587Z,41
2019-03-30T04:39:56.509Z,41
2019-03-30T04:40:22.509Z,41
2019-03-30T04:40:48.516Z,41
2019-03-30T04:41:14.526Z,41
2019-03-30T04:41:40.670Z,41
2019-03-30T04:42:06.560Z,41
2019-03-30T04:42:32.640Z,42
2019-03-30T04:42:58.518Z,42
2019-03-30T04:43:24.520Z,42
2019-03-30T04:43:50.608Z,42
2019-03-30T04:44:16.597Z,42
2019-03-30T04:44:42.517Z,42
2019-03-30T04:45:08.518Z,42
2019-03-30T04:45:34.526Z,42
2019-03-30T04:46:00.610Z,42
2019-03-30T04:46:26.530Z,42
2019-03-30T04:46:52.599Z,42
2019-03-30T04:47:18.528Z,42
2019-03-30T04:47:44.525Z,42
2019-03-30T04:48:10.609Z,42
2019-03-30T04:48:36.525Z,42
2019-03-30T04:49:02.541Z,42
2019-03-30T04:49:28.595Z,42
2019-03-30T04:49:54.521Z,42
2019-03-30T04:50:20.613Z,42
2019-03-30T04:50:46.533Z,42
2019-03-30T04:51:12.526Z,42
2019-03-30T04:51:38.538Z,42
2019-03-30T04:52:04.603Z,42
2019-03-30T04:52:30.618Z,42
2019-03-30T04:52:56.531Z,42
2019-03-30T04:53:22.536Z,42
2019-03-30T04:53:48.548Z,42
2019-03-30T04:54:14.543Z,42
2019-03-30T04:54:40.693Z,42
2019-03-30T04:55:06.549Z,42
2019-03-30T04:55:32.542Z,42
2019-03-30T04:55:58.538Z,42
2019-03-30T04:56:24.613Z,42
2019-03-30T04:56:50.633Z,42
2019-03-30T04:57:16.540Z,42
2019-03-30T04:57:42.540Z,42
2019-03-30T04:58:08.542Z,42
2019-03-30T04:58:34.546Z,42
2019-03-30T04:59:00.620Z,42
2019-03-30T04:59:26.538Z,42
2019-03-30T04:59:52.542Z,42
2019-03-30T05:00:18.539Z,42
2019-03-30T05:00:44.538Z,42
2019-03-30T05:01:10.631Z,42
2019-03-30T05:01:36.546Z,43
2019-03-30T05:02:02.620Z,42
2019-03-30T05:02:28.544Z,42
2019-03-30T05:02:54.546Z,42
2019-03-30T05:03:20.626Z,42
2019-03-30T05:03:46.545Z,42
2019-03-30T05:04:12.543Z,42
2019-03-30T05:04:38.553Z,42
2019-03-30T05:05:04.669Z,42
2019-03-30T05:05:30.632Z,43
2019-03-30T05:05:56.552Z,43
2019-03-30T05:06:22.551Z,43
2019-03-30T05:06:48.553Z,43
2019-03-30T05:07:14.552Z,43
2019-03-30T05:07:40.633Z,43
2019-03-30T05:08:06.559Z,43
2019-03-30T05:08:32.552Z,43
2019-03-30T05:08:58.551Z,43
2019-03-30T05:09:24.554Z,43
2019-03-30T05:09:50.643Z,43
2019-03-30T05:10:16.555Z,43
2019-03-30T05:10:42.554Z,43
2019-03-30T05:11:08.564Z,43
2019-03-30T05:11:34.560Z,43
2019-03-30T05:12:00.645Z,43
2019-03-30T05:12:26.562Z,43
2019-03-30T05:12:52.557Z,43
2019-03-30T05:13:18.557Z,43
2019-03-30T05:13:44.554Z,43
2019-03-30T05:14:10.647Z,43
2019-03-30T05:14:36.562Z,43
2019-03-30T05:15:02.563Z,43
2019-03-30T05:15:28.564Z,43
2019-03-30T05:15:54.564Z,43
2019-03-30T05:16:20.648Z,43
2019-03-30T05:16:46.567Z,43
2019-03-30T05:17:12.922Z,43
2019-03-30T05:17:38.568Z,43
2019-03-30T05:18:04.563Z,43
2019-03-30T05:18:30.647Z,43
2019-03-30T05:18:56.569Z,43
2019-03-30T05:19:22.571Z,43
2019-03-30T05:19:48.568Z,43
2019-03-30T05:20:14.574Z,43
2019-03-30T05:20:40.655Z,43
2019-03-30T05:21:06.649Z,43
2019-03-30T05:21:32.752Z,43
2019-03-30T05:21:58.588Z,43
2019-03-30T05:22:24.573Z,43
2019-03-30T05:22:50.663Z,43
2019-03-30T05:23:16.582Z,43
2019-03-30T05:23:42.659Z,43
2019-03-30T05:24:08.571Z,43
2019-03-30T05:24:34.574Z,43
2019-03-30T05:25:00.667Z,43
2019-03-30T05:25:26.597Z,43
2019-03-30T05:25:52.588Z,43
2019-03-30T05:26:18.648Z,43
2019-03-30T05:26:44.578Z,43
2019-03-30T05:27:10.658Z,43
2019-03-30T05:27:36.579Z,43
2019-03-30T05:28:02.578Z,43
2019-03-30T05:28:28.588Z,43
2019-03-30T05:28:54.654Z,43
2019-03-30T05:29:20.667Z,43
2019-03-30T05:29:46.588Z,44
2019-03-30T05:30:12.590Z,44
2019-03-30T05:30:38.585Z,44
2019-03-30T05:31:04.587Z,44
2019-03-30T05:31:30.665Z,44
2019-03-30T05:31:56.666Z,44
2019-03-30T05:32:22.583Z,44
2019-03-30T05:32:48.586Z,44
2019-03-30T05:33:14.590Z,44
2019-03-30T05:33:40.679Z,44
2019-03-30T05:34:06.596Z,44
2019-03-30T05:34:33.151Z,44
2019-03-30T05:34:58.586Z,44
2019-03-30T05:35:24.592Z,44
2019-03-30T05:35:50.674Z,44
2019-03-30T05:36:16.597Z,44
2019-03-30T05:36:42.602Z,44
2019-03-30T05:37:08.664Z,43
2019-03-30T05:37:34.592Z,44
2019-03-30T05:38:00.684Z,44
2019-03-30T05:38:26.594Z,44
2019-03-30T05:38:52.597Z,44
2019-03-30T05:39:18.608Z,44
2019-03-30T05:39:44.667Z,44
2019-03-30T05:40:10.689Z,44
2019-03-30T05:40:36.598Z,44
2019-03-30T05:41:02.606Z,44
2019-03-30T05:41:28.606Z,44
2019-03-30T05:41:54.605Z,44
2019-03-30T05:42:20.755Z,44
2019-03-30T05:42:46.602Z,44
2019-03-30T05:43:12.604Z,44
2019-03-30T05:43:38.602Z,44
2019-03-30T05:44:04.608Z,44
2019-03-30T05:44:30.700Z,44
2019-03-30T05:44:56.690Z,44
2019-03-30T05:45:22.606Z,44
2019-03-30T05:45:48.612Z,44
2019-03-30T05:46:14.605Z,44
2019-03-30T05:46:40.685Z,44
2019-03-30T05:47:06.614Z,44
2019-03-30T05:47:32.692Z,44
2019-03-30T05:47:58.607Z,44
2019-03-30T05:48:24.616Z,44
2019-03-30T05:48:50.700Z,43
2019-03-30T05:49:16.610Z,44
2019-03-30T05:49:42.622Z,44
2019-03-30T05:50:08.687Z,44
2019-03-30T05:50:34.661Z,44
2019-03-30T05:51:00.696Z,44
2019-03-30T05:51:26.616Z,44
2019-03-30T05:51:52.616Z,44
2019-03-30T05:52:18.624Z,44
2019-03-30T05:52:44.685Z,44
2019-03-30T05:53:10.704Z,44
2019-03-30T05:53:36.624Z,44
2019-03-30T05:54:02.622Z,43
2019-03-30T05:54:28.619Z,44
2019-03-30T05:54:54.630Z,44
2019-03-30T05:55:20.772Z,44
2019-03-30T05:55:46.626Z,44
2019-03-30T05:56:12.618Z,44
2019-03-30T05:56:38.623Z,44
2019-03-30T05:57:04.625Z,44
2019-03-30T05:57:30.721Z,44
2019-03-30T05:57:56.707Z,44
2019-03-30T05:58:22.633Z,44
2019-03-30T05:58:48.631Z,43
2019-03-30T05:59:14.627Z,43
2019-03-30T05:59:40.709Z,43
2019-03-30T06:00:06.736Z,43
2019-03-30T06:00:32.703Z,43
2019-03-30T06:00:58.620Z,43
2019-03-30T06:01:24.630Z,43
2019-03-30T06:01:50.717Z,43
2019-03-30T06:02:16.634Z,43
2019-03-30T06:02:42.639Z,43
2019-03-30T06:03:08.706Z,43
2019-03-30T06:03:34.752Z,43
2019-03-30T06:04:00.713Z,43
2019-03-30T06:04:26.638Z,43
2019-03-30T06:04:52.641Z,43
2019-03-30T06:05:18.644Z,43
2019-03-30T06:05:44.704Z,44
2019-03-30T06:06:10.721Z,43
2019-03-30T06:06:36.638Z,43
2019-03-30T06:07:02.638Z,43
2019-03-30T06:07:28.635Z,43
2019-03-30T06:07:54.647Z,43
2019-03-30T06:08:20.789Z,43
2019-03-30T06:08:46.645Z,43
2019-03-30T06:09:12.642Z,43
2019-03-30T06:09:38.643Z,43
2019-03-30T06:10:04.640Z,43
2019-03-30T06:10:30.733Z,43
2019-03-30T06:10:57.000Z,43
2019-03-30T06:11:22.648Z,43
2019-03-30T06:11:48.642Z,43
2019-03-30T06:12:14.642Z,43
2019-03-30T06:12:40.776Z,43
2019-03-30T06:13:06.655Z,43
2019-03-30T06:13:32.723Z,43
2019-03-30T06:13:58.643Z,43
2019-03-30T06:14:24.652Z,43
2019-03-30T06:14:50.735Z,43
2019-03-30T06:15:16.649Z,43
2019-03-30T06:15:42.657Z,43
2019-03-30T06:16:08.722Z,43
2019-03-30T06:16:34.654Z,43
2019-03-30T06:17:00.736Z,43
2019-03-30T06:17:26.655Z,42
2019-03-30T06:17:52.970Z,43
2019-03-30T06:18:18.666Z,43
2019-03-30T06:18:44.721Z,43
2019-03-30T06:19:10.726Z,43
2019-03-30T06:19:36.655Z,43
2019-03-30T06:20:02.653Z,43
2019-03-30T06:20:28.653Z,43